createdAt,value
2018-09-27T00:00:47.201Z,5.80
2018-09-27T00:03:16.089Z,5.80
2018-09-27T00:05:45.011Z,5.90
2018-09-27T00:08:13.895Z,6.00
2018-09-27T00:10:42.785Z,6.00
2018-09-27T00:13:11.678Z,6.10
2018-09-27T00:15:40.574Z,6.20
2018-09-27T00:18:09.433Z,6.20
2018-09-27T00:20:38.361Z,6.30
2018-09-27T00:23:07.301Z,6.30
2018-09-27T00:25:36.218Z,6.30
2018-09-27T00:28:05.191Z,6.30
2018-09-27T00:30:34.040Z,6.30
2018-09-27T00:33:02.939Z,6.20
2018-09-27T00:35:31.772Z,6.20
2018-09-27T00:38:00.658Z,6.10
2018-09-27T00:40:29.536Z,6.10
2018-09-27T00:42:58.526Z,6.10
2018-09-27T00:45:27.402Z,6.00
2018-09-27T00:47:56.370Z,6.00
2018-09-27T00:50:25.199Z,6.00
2018-09-27T00:52:54.050Z,6.00
2018-09-27T00:55:22.954Z,6.00
2018-09-27T00:57:51.891Z,6.00
2018-09-27T01:00:20.826Z,5.90
2018-09-27T01:02:49.772Z,5.90
2018-09-27T01:05:18.634Z,5.90
2018-09-27T01:07:47.550Z,5.90
2018-09-27T01:10:16.419Z,5.90
2018-09-27T01:12:45.350Z,5.90
2018-09-27T01:15:14.310Z,5.90
2018-09-27T01:17:43.229Z,6.00
2018-09-27T01:20:12.114Z,6.00
2018-09-27T01:22:41.094Z,5.90
2018-09-27T01:25:10.031Z,6.00
2018-09-27T01:27:38.945Z,6.00
2018-09-27T01:30:08.241Z,6.00
2018-09-27T01:32:37.084Z,6.00
2018-09-27T01:35:06.045Z,5.90
2018-09-27T01:37:35.038Z,5.90
2018-09-27T01:40:04.056Z,5.90
2018-09-27T01:42:37.635Z,5.90
2018-09-27T01:45:06.605Z,5.90
2018-09-27T01:47:35.454Z,5.90
2018-09-27T01:50:04.443Z,5.90
2018-09-27T01:52:33.306Z,5.90
2018-09-27T01:55:02.239Z,6.00
2018-09-27T01:57:31.139Z,6.00
2018-09-27T02:00:00.054Z,6.00
2018-09-27T02:02:28.951Z,6.10
2018-09-27T02:04:57.834Z,6.10
2018-09-27T02:07:26.756Z,6.20
2018-09-27T02:09:55.653Z,6.20
2018-09-27T02:12:24.576Z,6.20
2018-09-27T02:14:53.474Z,6.20
2018-09-27T02:17:22.380Z,6.30
2018-09-27T02:19:51.285Z,6.30
2018-09-27T02:22:20.240Z,6.40
2018-09-27T02:24:49.235Z,6.40
2018-09-27T02:27:18.138Z,6.40
2018-09-27T02:29:47.073Z,6.50
2018-09-27T02:32:15.986Z,6.50
2018-09-27T02:34:44.886Z,6.50
2018-09-27T02:37:13.777Z,6.60
2018-09-27T02:39:42.719Z,6.60
2018-09-27T02:42:11.606Z,6.70
2018-09-27T02:44:40.563Z,6.70
2018-09-27T02:47:09.565Z,6.80
2018-09-27T02:49:38.438Z,6.80
2018-09-27T02:52:07.581Z,6.90
2018-09-27T02:54:36.568Z,6.90
2018-09-27T02:57:05.548Z,6.90
2018-09-27T02:59:34.538Z,7.00
2018-09-27T03:02:03.468Z,7.00
2018-09-27T03:04:32.445Z,7.00
2018-09-27T03:07:01.325Z,7.10
2018-09-27T03:09:30.280Z,7.10
2018-09-27T03:11:59.229Z,7.10
2018-09-27T03:14:32.923Z,7.20
2018-09-27T03:17:01.924Z,7.40
2018-09-27T03:19:30.853Z,7.50
2018-09-27T03:21:59.740Z,7.60
2018-09-27T03:24:28.591Z,7.80
2018-09-27T03:26:57.560Z,7.80
2018-09-27T03:29:26.506Z,8.00
2018-09-27T03:31:55.403Z,8.10
2018-09-27T03:34:24.384Z,8.20
2018-09-27T03:36:53.287Z,8.20
2018-09-27T03:39:22.116Z,8.20
2018-09-27T03:41:51.024Z,8.20
2018-09-27T03:44:19.969Z,8.20
2018-09-27T03:46:48.875Z,8.10
2018-09-27T03:49:17.770Z,8.10
2018-09-27T03:51:46.672Z,8.10
2018-09-27T03:54:15.556Z,8.10
2018-09-27T03:56:44.459Z,8.00
2018-09-27T03:59:13.366Z,8.00
2018-09-27T04:01:42.306Z,8.00
2018-09-27T04:04:11.310Z,7.90
2018-09-27T04:06:40.290Z,7.90
2018-09-27T04:09:10.060Z,8.10
2018-09-27T04:11:39.200Z,8.30
2018-09-27T04:14:08.714Z,8.40
2018-09-27T04:16:37.725Z,8.50
2018-09-27T04:19:06.685Z,8.70
2018-09-27T04:21:35.635Z,8.80
2018-09-27T04:24:04.691Z,9.20
2018-09-27T04:26:33.561Z,9.40
2018-09-27T04:29:02.568Z,9.50
2018-09-27T04:31:31.461Z,9.60
2018-09-27T04:34:00.383Z,9.70
2018-09-27T04:36:29.245Z,9.70
2018-09-27T04:38:58.230Z,9.70
2018-09-27T04:41:27.103Z,9.60
2018-09-27T04:43:56.020Z,9.50
2018-09-27T04:46:25.001Z,9.30
2018-09-27T04:48:53.990Z,9.20
2018-09-27T04:51:22.945Z,9.00
2018-09-27T04:53:51.968Z,8.90
2018-09-27T04:56:20.937Z,8.70
2018-09-27T04:58:50.043Z,8.70
2018-09-27T05:01:19.133Z,8.60
2018-09-27T05:03:48.254Z,8.50
2018-09-27T05:06:17.348Z,8.40
2018-09-27T05:08:46.771Z,8.30
2018-09-27T05:11:15.907Z,8.20
2018-09-27T05:13:44.955Z,8.10
2018-09-27T05:16:13.989Z,8.10
2018-09-27T05:18:43.433Z,8.00
2018-09-27T05:21:12.522Z,8.00
2018-09-27T05:23:41.542Z,7.90
2018-09-27T05:26:10.842Z,7.90
2018-09-27T05:28:40.034Z,7.80
2018-09-27T05:31:09.453Z,7.70
2018-09-27T05:33:43.620Z,7.70
2018-09-27T05:36:12.833Z,7.70
2018-09-27T05:38:41.957Z,7.70
2018-09-27T05:41:10.982Z,7.70
2018-09-27T05:43:40.005Z,7.70
2018-09-27T05:46:09.461Z,7.70
2018-09-27T05:48:38.423Z,7.70
2018-09-27T05:51:07.859Z,7.70
2018-09-27T05:53:36.929Z,7.80
2018-09-27T05:56:06.129Z,7.80
2018-09-27T05:58:35.099Z,7.80
2018-09-27T06:01:04.104Z,7.80
2018-09-27T06:03:33.111Z,7.80
2018-09-27T06:06:02.115Z,7.80
2018-09-27T06:08:31.100Z,7.80
2018-09-27T06:11:00.434Z,7.90
2018-09-27T06:13:29.469Z,8.00
2018-09-27T06:15:58.520Z,8.00
2018-09-27T06:18:27.669Z,8.10
2018-09-27T06:20:56.768Z,8.20
2018-09-27T06:23:25.794Z,8.40
2018-09-27T06:25:54.861Z,8.40
2018-09-27T06:28:23.898Z,8.60
2018-09-27T06:30:52.917Z,8.60
2018-09-27T06:33:22.000Z,8.70
2018-09-27T06:35:51.117Z,8.90
2018-09-27T06:38:20.438Z,9.10
2018-09-27T06:40:49.739Z,9.30
2018-09-27T06:43:18.825Z,9.40
2018-09-27T06:45:47.838Z,9.40
2018-09-27T06:48:17.335Z,9.50
2018-09-27T06:50:46.444Z,9.70
2018-09-27T06:53:15.433Z,9.80
2018-09-27T06:55:44.479Z,9.90
2018-09-27T06:58:13.452Z,10.00
2018-09-27T07:00:42.509Z,10.20
2018-09-27T07:03:11.588Z,10.30
2018-09-27T07:05:40.642Z,10.30
2018-09-27T07:08:09.706Z,10.50
2018-09-27T07:10:38.754Z,10.80
2018-09-27T07:13:07.827Z,11.10
2018-09-27T07:15:36.898Z,11.40
2018-09-27T07:18:05.927Z,11.60
2018-09-27T07:20:35.007Z,11.70
2018-09-27T07:23:04.053Z,11.80
2018-09-27T07:25:33.124Z,11.90
2018-09-27T07:28:02.102Z,11.90
2018-09-27T07:30:31.113Z,11.90
2018-09-27T07:33:00.024Z,12.00
2018-09-27T07:35:29.075Z,12.00
2018-09-27T07:37:58.133Z,12.00
2018-09-27T07:40:27.193Z,12.20
2018-09-27T07:42:56.219Z,12.30
2018-09-27T07:45:25.260Z,12.50
2018-09-27T07:47:54.291Z,12.70
2018-09-27T07:50:23.328Z,13.00
2018-09-27T07:52:52.373Z,13.20
2018-09-27T07:55:21.411Z,13.50
2018-09-27T07:57:50.626Z,13.80
2018-09-27T08:00:19.688Z,14.00
2018-09-27T08:02:48.848Z,14.20
2018-09-27T08:05:17.880Z,14.40
2018-09-27T08:07:46.959Z,14.70
2018-09-27T08:10:16.035Z,14.90
2018-09-27T08:12:45.088Z,15.20
2018-09-27T08:15:14.159Z,15.40
2018-09-27T08:17:43.214Z,15.70
2018-09-27T08:20:12.250Z,16.00
2018-09-27T08:22:41.343Z,16.20
2018-09-27T08:25:10.359Z,16.40
2018-09-27T08:27:39.412Z,16.50
2018-09-27T08:30:08.500Z,16.70
2018-09-27T08:32:37.541Z,16.80
2018-09-27T08:35:06.765Z,17.00
2018-09-27T08:37:35.791Z,17.20
2018-09-27T08:40:04.946Z,17.50
2018-09-27T08:42:35.595Z,17.70
2018-09-27T08:45:04.878Z,18.00
2018-09-27T08:47:33.781Z,18.20
2018-09-27T08:50:02.858Z,18.40
2018-09-27T08:52:31.950Z,18.50
2018-09-27T08:55:00.947Z,18.70
2018-09-27T08:57:30.035Z,18.90
2018-09-27T08:59:59.188Z,19.10
2018-09-27T09:02:28.249Z,19.30
2018-09-27T09:04:57.322Z,19.40
2018-09-27T09:07:26.381Z,19.60
2018-09-27T09:09:55.458Z,19.60
2018-09-27T09:12:24.489Z,19.60
2018-09-27T09:14:53.537Z,19.80
2018-09-27T09:17:22.519Z,19.90
2018-09-27T09:19:51.533Z,20.00
2018-09-27T09:22:20.546Z,20.10
2018-09-27T09:24:49.628Z,20.20
2018-09-27T09:27:18.639Z,20.30
2018-09-27T09:29:47.656Z,20.40
2018-09-27T09:32:16.511Z,20.60
2018-09-27T09:34:45.541Z,20.80
2018-09-27T09:37:14.644Z,21.00
2018-09-27T09:39:43.770Z,21.10
2018-09-27T09:42:13.259Z,21.20
2018-09-27T09:44:42.362Z,21.40
2018-09-27T09:47:11.485Z,21.50
2018-09-27T09:49:40.446Z,21.60
2018-09-27T09:52:09.482Z,21.80
2018-09-27T09:54:38.738Z,22.10
2018-09-27T09:57:07.824Z,22.00
2018-09-27T09:59:36.799Z,22.10
2018-09-27T10:02:06.074Z,22.30
2018-09-27T10:04:35.093Z,22.40
2018-09-27T10:07:04.133Z,22.60
2018-09-27T10:09:33.167Z,22.90
2018-09-27T10:12:02.290Z,23.00
2018-09-27T10:14:31.262Z,22.90
2018-09-27T10:17:00.345Z,23.00
2018-09-27T10:19:29.366Z,23.10
2018-09-27T10:21:58.471Z,23.20
2018-09-27T10:24:27.733Z,23.20
2018-09-27T10:26:56.843Z,23.10
2018-09-27T10:29:26.027Z,23.00
2018-09-27T10:31:55.068Z,22.90
2018-09-27T10:34:24.066Z,23.10
2018-09-27T10:36:53.172Z,23.40
2018-09-27T10:39:22.282Z,23.50
2018-09-27T10:41:51.305Z,23.50
2018-09-27T10:44:20.373Z,23.50
2018-09-27T10:46:49.443Z,23.40
2018-09-27T10:49:18.491Z,23.30
2018-09-27T10:51:47.468Z,23.60
2018-09-27T10:54:16.499Z,23.90
2018-09-27T10:56:45.486Z,24.10
2018-09-27T10:59:14.500Z,24.30
2018-09-27T11:01:43.484Z,24.40
2018-09-27T11:04:12.574Z,24.30
2018-09-27T11:06:41.549Z,24.50
2018-09-27T11:09:10.864Z,24.70
2018-09-27T11:11:39.847Z,24.80
2018-09-27T11:14:08.814Z,24.80
2018-09-27T11:16:37.917Z,24.80
2018-09-27T11:19:07.249Z,24.90
2018-09-27T11:21:36.237Z,25.10
2018-09-27T11:24:05.216Z,25.20
2018-09-27T11:26:34.220Z,25.30
2018-09-27T11:29:08.474Z,25.30
2018-09-27T11:31:42.490Z,25.40
2018-09-27T11:34:11.517Z,25.70
2018-09-27T11:36:40.526Z,25.90
2018-09-27T11:39:10.637Z,26.10
2018-09-27T11:41:39.707Z,26.20
2018-09-27T11:44:08.699Z,26.30
2018-09-27T11:46:37.537Z,26.20
2018-09-27T11:49:06.703Z,26.20
2018-09-27T11:51:35.489Z,26.20
2018-09-27T11:54:04.507Z,26.20
2018-09-27T11:56:33.558Z,26.40
2018-09-27T11:59:08.837Z,26.40
2018-09-27T12:01:37.940Z,26.50
2018-09-27T12:04:07.286Z,26.60
2018-09-27T12:06:36.266Z,26.60
2018-09-27T12:09:08.517Z,26.80
2018-09-27T12:11:37.659Z,26.90
2018-09-27T12:14:06.672Z,27.00
2018-09-27T12:16:35.607Z,27.20
2018-09-27T12:19:04.580Z,27.30
2018-09-27T12:21:33.576Z,27.40
2018-09-27T12:24:02.590Z,27.60
2018-09-27T12:26:31.471Z,27.60
2018-09-27T12:29:00.401Z,27.50
2018-09-27T12:31:29.308Z,27.50
2018-09-27T12:33:58.246Z,27.50
2018-09-27T12:36:27.180Z,27.60
2018-09-27T12:38:56.218Z,27.70
2018-09-27T12:41:25.208Z,27.70
2018-09-27T12:43:55.835Z,28.00
2018-09-27T12:46:24.905Z,28.40
2018-09-27T12:48:53.875Z,28.70
2018-09-27T12:51:23.026Z,29.20
2018-09-27T12:53:51.895Z,29.60
2018-09-27T12:56:20.821Z,29.90
2018-09-27T12:58:49.855Z,30.30
2018-09-27T13:01:18.865Z,30.60
2018-09-27T13:03:47.920Z,31.10
2018-09-27T13:06:17.101Z,31.30
2018-09-27T13:08:46.243Z,31.30
2018-09-27T13:11:15.133Z,31.50
2018-09-27T13:13:44.106Z,31.70
2018-09-27T13:16:13.147Z,31.90
2018-09-27T13:18:42.022Z,32.10
2018-09-27T13:21:25.169Z,32.50
2018-09-27T13:23:54.097Z,32.80
2018-09-27T13:26:23.194Z,33.00
2018-09-27T13:28:52.220Z,33.10
2018-09-27T13:31:21.235Z,33.10
2018-09-27T13:33:50.302Z,33.10
2018-09-27T13:36:19.314Z,33.20
2018-09-27T13:38:48.265Z,33.40
2018-09-27T13:41:17.161Z,33.60
2018-09-27T13:43:46.037Z,33.60
2018-09-27T13:46:15.031Z,33.80
2018-09-27T13:48:44.058Z,34.10
2018-09-27T13:51:12.984Z,34.30
2018-09-27T13:53:41.910Z,34.10
2018-09-27T13:56:10.898Z,32.80
2018-09-27T13:58:39.798Z,31.30
2018-09-27T14:01:08.726Z,29.60
2018-09-27T14:03:37.630Z,28.10
2018-09-27T14:06:06.566Z,27.00
2018-09-27T14:08:35.451Z,26.20
2018-09-27T14:11:04.368Z,26.00
2018-09-27T14:13:33.266Z,26.00
2018-09-27T14:16:02.244Z,26.20
2018-09-27T14:18:31.139Z,25.90
2018-09-27T14:21:00.066Z,25.20
2018-09-27T14:23:28.975Z,24.30
2018-09-27T14:25:57.931Z,23.50
2018-09-27T14:28:26.899Z,22.80
2018-09-27T14:30:55.735Z,22.30
2018-09-27T14:33:24.719Z,21.90
2018-09-27T14:35:53.698Z,21.60
2018-09-27T14:38:22.636Z,21.30
2018-09-27T14:40:51.617Z,21.10
2018-09-27T14:43:20.547Z,20.80
2018-09-27T14:45:49.554Z,20.60
2018-09-27T14:48:18.608Z,20.40
2018-09-27T14:50:47.541Z,20.30
2018-09-27T14:53:16.522Z,20.20
2018-09-27T14:55:45.563Z,20.00
2018-09-27T14:58:14.553Z,19.80
2018-09-27T15:00:43.594Z,19.70
2018-09-27T15:03:12.642Z,19.50
2018-09-27T15:05:41.518Z,19.30
2018-09-27T15:08:10.582Z,19.10
2018-09-27T15:10:42.626Z,18.90
2018-09-27T15:13:11.681Z,18.80
2018-09-27T15:15:40.616Z,18.70
2018-09-27T15:18:09.607Z,18.50
2018-09-27T15:20:38.522Z,18.40
2018-09-27T15:23:07.456Z,18.20
2018-09-27T15:25:36.380Z,18.10
2018-09-27T15:28:05.430Z,18.00
2018-09-27T15:30:34.431Z,17.90
2018-09-27T15:33:03.453Z,17.80
2018-09-27T15:35:32.429Z,17.70
2018-09-27T15:38:01.436Z,17.50
2018-09-27T15:40:30.437Z,17.40
2018-09-27T15:42:59.406Z,17.30
2018-09-27T15:45:28.419Z,17.30
2018-09-27T15:47:57.460Z,17.30
2018-09-27T15:50:26.454Z,17.10
2018-09-27T15:52:55.498Z,17.00
2018-09-27T15:55:24.576Z,16.90
2018-09-27T15:57:53.607Z,16.80
2018-09-27T16:00:22.758Z,16.70
2018-09-27T16:02:51.725Z,16.60
2018-09-27T16:05:20.772Z,16.50
2018-09-27T16:07:49.718Z,16.30
2018-09-27T16:10:18.693Z,16.10
2018-09-27T16:12:47.651Z,16.00
2018-09-27T16:15:16.628Z,15.90
2018-09-27T16:17:45.660Z,15.80
2018-09-27T16:20:14.616Z,15.70
2018-09-27T16:22:43.601Z,15.60
2018-09-27T16:25:12.619Z,15.40
2018-09-27T16:27:46.776Z,15.40
2018-09-27T16:30:15.818Z,15.30
2018-09-27T16:32:44.824Z,15.10
2018-09-27T16:35:14.713Z,15.00
2018-09-27T16:37:43.669Z,14.90
2018-09-27T16:40:12.797Z,14.80
2018-09-27T16:42:42.017Z,14.60
2018-09-27T16:45:11.057Z,14.50
2018-09-27T16:47:40.029Z,14.40
2018-09-27T16:50:09.058Z,14.20
2018-09-27T16:52:38.248Z,14.10
2018-09-27T16:55:07.276Z,14.00
2018-09-27T16:57:36.436Z,13.90
2018-09-27T17:00:06.084Z,13.90
2018-09-27T17:02:35.379Z,13.80
2018-09-27T17:05:04.780Z,13.70
2018-09-27T17:07:34.190Z,13.50
2018-09-27T17:10:03.612Z,13.50
2018-09-27T17:12:32.854Z,13.40
2018-09-27T17:15:02.206Z,13.30
2018-09-27T17:17:31.538Z,13.20
2018-09-27T17:20:00.747Z,13.20
2018-09-27T17:22:30.110Z,13.10
2018-09-27T17:24:59.474Z,13.00
2018-09-27T17:27:28.801Z,12.90
2018-09-27T17:29:58.226Z,12.90
2018-09-27T17:32:27.782Z,12.80
2018-09-27T17:34:57.241Z,12.70
2018-09-27T17:37:26.719Z,12.60
2018-09-27T17:39:56.231Z,12.60
2018-09-27T17:42:25.644Z,12.50
2018-09-27T17:44:55.035Z,12.50
2018-09-27T17:47:24.482Z,12.40
2018-09-27T17:49:53.956Z,12.40
2018-09-27T17:52:23.421Z,12.30
2018-09-27T17:54:52.907Z,12.30
2018-09-27T17:57:23.364Z,12.30
2018-09-27T18:00:00.897Z,12.20
2018-09-27T18:02:30.337Z,12.10
2018-09-27T18:04:59.767Z,12.10
2018-09-27T18:07:29.356Z,12.10
2018-09-27T18:09:58.851Z,12.00
2018-09-27T18:12:28.360Z,11.90
2018-09-27T18:14:57.849Z,11.90
2018-09-27T18:17:27.280Z,11.80
2018-09-27T18:19:56.746Z,11.70
2018-09-27T18:22:26.188Z,11.70
2018-09-27T18:24:55.648Z,11.70
2018-09-27T18:27:25.015Z,11.60
2018-09-27T18:29:54.612Z,11.60
2018-09-27T18:32:24.106Z,11.50
2018-09-27T18:34:53.715Z,11.50
2018-09-27T18:37:23.134Z,11.50
2018-09-27T18:39:52.615Z,11.50
2018-09-27T18:42:22.181Z,11.40
2018-09-27T18:44:51.790Z,11.40
2018-09-27T18:47:21.285Z,11.30
2018-09-27T18:49:50.793Z,11.30
2018-09-27T18:52:20.411Z,11.20
2018-09-27T18:54:50.503Z,11.20
2018-09-27T18:57:20.049Z,11.10
2018-09-27T18:59:50.086Z,11.10
2018-09-27T19:02:20.086Z,11.10
2018-09-27T19:04:50.494Z,11.00
2018-09-27T19:07:19.981Z,10.90
2018-09-27T19:09:49.569Z,10.90
2018-09-27T19:12:19.090Z,10.90
2018-09-27T19:14:48.641Z,10.90
2018-09-27T19:17:18.386Z,10.90
2018-09-27T19:19:47.894Z,10.80
2018-09-27T19:22:17.464Z,10.80
2018-09-27T19:24:46.992Z,10.80
2018-09-27T19:27:17.056Z,10.70
2018-09-27T19:29:46.650Z,10.70
2018-09-27T19:32:16.557Z,10.70
2018-09-27T19:34:46.104Z,10.60
2018-09-27T19:37:15.680Z,10.60
2018-09-27T19:39:45.145Z,10.60
2018-09-27T19:42:15.043Z,10.60
2018-09-27T19:44:44.944Z,10.50
2018-09-27T19:47:18.125Z,10.60
2018-09-27T19:49:47.973Z,10.50
2018-09-27T19:52:19.250Z,10.50
2018-09-27T19:54:48.784Z,10.50
2018-09-27T19:57:18.397Z,10.50
2018-09-27T19:59:48.022Z,10.40
2018-09-27T20:02:17.765Z,10.30
2018-09-27T20:04:47.876Z,10.30
2018-09-27T20:07:17.550Z,10.30
2018-09-27T20:09:47.441Z,10.30
2018-09-27T20:12:16.980Z,10.30
2018-09-27T20:14:46.559Z,10.30
2018-09-27T20:17:16.147Z,10.20
2018-09-27T20:19:48.146Z,10.20
2018-09-27T20:22:17.787Z,10.20
2018-09-27T20:24:47.282Z,10.20
2018-09-27T20:27:16.782Z,10.20
2018-09-27T20:29:46.414Z,10.10
2018-09-27T20:32:16.022Z,10.10
2018-09-27T20:34:45.713Z,10.10
2018-09-27T20:37:15.385Z,10.10
2018-09-27T20:39:45.062Z,10.10
2018-09-27T20:42:15.124Z,10.10
2018-09-27T20:44:44.699Z,10.00
2018-09-27T20:47:14.270Z,10.00
2018-09-27T20:49:43.918Z,10.00
2018-09-27T20:52:13.379Z,10.00
2018-09-27T20:54:44.026Z,10.00
2018-09-27T20:57:13.515Z,9.90
2018-09-27T20:59:43.041Z,9.90
2018-09-27T21:02:12.554Z,9.90
2018-09-27T21:04:42.230Z,9.90
2018-09-27T21:07:11.749Z,9.90
2018-09-27T21:09:41.144Z,9.90
2018-09-27T21:12:10.514Z,9.90
2018-09-27T21:14:39.849Z,9.90
2018-09-27T21:17:09.070Z,9.90
2018-09-27T21:19:38.129Z,9.80
2018-09-27T21:22:07.331Z,9.80
2018-09-27T21:24:36.268Z,9.80
2018-09-27T21:27:05.219Z,9.80
2018-09-27T21:29:34.169Z,9.80
2018-09-27T21:32:03.155Z,9.70
2018-09-27T21:34:32.130Z,9.70
2018-09-27T21:37:01.109Z,9.70
2018-09-27T21:39:30.143Z,9.70
2018-09-27T21:41:59.083Z,9.60
2018-09-27T21:44:28.109Z,9.60
2018-09-27T21:46:57.080Z,9.60
2018-09-27T21:49:26.066Z,9.60
2018-09-27T21:52:01.162Z,9.60
2018-09-27T21:54:30.204Z,9.60
2018-09-27T21:56:59.254Z,9.60
2018-09-27T21:59:28.218Z,9.60
2018-09-27T22:01:57.125Z,9.60
2018-09-27T22:04:26.199Z,9.60
2018-09-27T22:06:55.212Z,9.60
2018-09-27T22:09:24.200Z,9.60
2018-09-27T22:11:53.156Z,9.60
2018-09-27T22:14:22.086Z,9.60
2018-09-27T22:16:51.258Z,9.60
2018-09-27T22:19:20.165Z,9.60
2018-09-27T22:21:49.108Z,9.60
2018-09-27T22:24:18.051Z,9.50
2018-09-27T22:26:47.041Z,9.50
2018-09-27T22:29:15.982Z,9.50
2018-09-27T22:31:44.890Z,9.50
2018-09-27T22:34:13.840Z,9.50
2018-09-27T22:36:42.828Z,9.50
2018-09-27T22:39:11.838Z,9.40
2018-09-27T22:41:40.850Z,9.50
2018-09-27T22:44:09.871Z,9.50
2018-09-27T22:46:38.980Z,9.40
2018-09-27T22:49:08.416Z,9.40
2018-09-27T22:51:37.450Z,9.40
2018-09-27T22:54:06.445Z,9.40
2018-09-27T22:56:36.173Z,9.40
2018-09-27T22:59:05.162Z,9.40
2018-09-27T23:01:34.129Z,9.40
2018-09-27T23:04:03.060Z,9.40
2018-09-27T23:06:32.051Z,9.40
2018-09-27T23:09:01.013Z,9.40
2018-09-27T23:11:32.477Z,9.30
2018-09-27T23:14:02.861Z,9.30
2018-09-27T23:16:31.821Z,9.30
2018-09-27T23:19:00.868Z,9.30
2018-09-27T23:21:29.876Z,9.30
2018-09-27T23:24:00.267Z,9.30
2018-09-27T23:26:29.387Z,9.30
2018-09-27T23:28:58.410Z,9.20
2018-09-27T23:31:27.822Z,9.20
2018-09-27T23:33:56.914Z,9.20
2018-09-27T23:36:25.836Z,9.20
2018-09-27T23:38:54.725Z,9.10
2018-09-27T23:41:23.585Z,9.10
2018-09-27T23:43:52.559Z,9.20
2018-09-27T23:46:21.506Z,9.20
2018-09-27T23:48:50.435Z,9.10
2018-09-27T23:51:19.334Z,9.20
2018-09-27T23:53:48.209Z,9.10
2018-09-27T23:56:17.099Z,9.10
2018-09-27T23:58:45.968Z,9.10
